Aérodrome :
LOGIN :

S'inscrire | Disclaimer

   EN    FR    IT 

 










Légende :    VFR   VFR Marginal   IFR   IFR Intensif   IFR Très Intensif
Visi : 
Plafond : 
>= 8 km
>= 3000ft
5 à 8 km
1000 à 3000 ft
1500m à 5 km
500 à 1000 ft
800 à 1500m
200 à 500 ft
< 800m
< 200 ft
Symboles :   Orages  Brouillard  Fortes neiges  Fortes précipitations  Vent > 20 kt
SIGMETs :   Divers  Orages  Givrage  Turbulence  Onde Orograph.  Cendres Volcan.







- Altitude de l'aérodrome : 464 ft
- Code IATA : EVX
- Voir les cartes d'approche


LFOE - Evreux

DERNIER METAR :
  • 232000Z AUTO 22012KT 9999 BKN009 OVC014 12/11 Q1022

METARs EXPIRÉS :
  • 231930Z AUTO 22013KT 9999 BKN011 OVC016 12/11 Q1022
  • 231900Z AUTO 22014KT 9999 BKN013 OVC018 12/10 Q1021
  • 231830Z AUTO 22013KT 9999 BKN018 OVC060 12/10 Q1021
  • 231800Z AUTO 22013KT 9999 FEW015 BKN020 BKN040 12/10 Q1021
  • 231730Z AUTO 21013KT 9999 FEW013 BKN023 OVC037 12/10 Q1021

TAF AMD TAF LFOE
Valide du 23 à 15h jusqu'au 24 à 15h UTC


231518Z 2315/2415 20012KT 9999 SCT010 BKN030
BECMG 2317/2320 OVC007
TEMPO 2315/2322 21015G25KT 3000 -DZRA OVC004
TEMPO 2322/2409 2000 -DZRA OVC002
BECMG 2409/2412 21015G30KT BKN020
TEMPO 2412/2415 21020G35KT
Pas de NOTAMs connus pour ce terrain.



MET'MAP, la Météo Aéronautique d'un coup d'oeil ! - Copyright ORBIFLY Décembre 2007 - Disclaimer

ORBIFLY MET'MAP TEAM :

Programmation & Développement : Alexandra Zaïnal
Conception & Développement : Baudouin d'Aumeries
Co-Programmation & Développement : Marc-Olivier Méhu
Soutien technique & logistique : Manuel Goepfert

Contact : metmap@orbifly.com




SOURCES & CREDITS :

   NOAA